Terminal Aerodrome Forecast
Issued by NWS Grand Forks, ND

Home | Current Version | Previous Version | Graphics & Text | Print | Product List | Glossary On
Versions: 1 2 3 4 5 6 7 8 9 10 11 12 13 14
518
FTUS43 KFGF 270520
TAFFAR
TAF
KFAR 270520Z 2706/2806 17005KT P6SM BKN070
     FM271200 15007KT P6SM VCTS OVC060CB
     FM271400 17009KT P6SM OVC070
     FM272300 18008KT P6SM BKN080=

USA.gov is the U.S. government's official web portal to all federal, state and local government web resources and services.